sensor_id;sensor_type;location;lat;lon;timestamp;pressure;altitude;pressure_sealevel;temperature;humidity
71043;BME280;58696;52.134;5.500;2023-03-15T00:01:11;101302.31;;;1.21;92.60
71043;BME280;58696;52.134;5.500;2023-03-15T00:03:43;101301.50;;;1.21;92.77
71043;BME280;58696;52.134;5.500;2023-03-15T00:06:15;101301.50;;;1.21;92.77
71043;BME280;58696;52.134;5.500;2023-03-15T00:08:42;101304.25;;;1.18;92.86
71043;BME280;58696;52.134;5.500;2023-03-15T00:11:16;101307.22;;;1.12;92.74
71043;BME280;58696;52.134;5.500;2023-03-15T00:13:44;101308.25;;;1.09;92.81
71043;BME280;58696;52.134;5.500;2023-03-15T00:16:11;101307.97;;;1.01;92.85
71043;BME280;58696;52.134;5.500;2023-03-15T00:18:46;101312.44;;;0.97;93.19
71043;BME280;58696;52.134;5.500;2023-03-15T00:21:13;101310.75;;;0.98;93.06
71043;BME280;58696;52.134;5.500;2023-03-15T00:23:41;101305.78;;;0.96;93.09
71043;BME280;58696;52.134;5.500;2023-03-15T00:26:10;101309.66;;;0.89;93.12
71043;BME280;58696;52.134;5.500;2023-03-15T00:28:39;101314.09;;;0.86;93.12
71043;BME280;58696;52.134;5.500;2023-03-15T00:31:12;101318.47;;;0.84;93.40
71043;BME280;58696;52.134;5.500;2023-03-15T00:33:45;101320.53;;;0.78;93.29
71043;BME280;58696;52.134;5.500;2023-03-15T00:36:12;101322.25;;;0.78;93.37
71043;BME280;58696;52.134;5.500;2023-03-15T00:38:40;101319.09;;;0.74;93.48
71043;BME280;58696;52.134;5.500;2023-03-15T00:41:12;101332.00;;;0.71;93.56
71043;BME280;58696;52.134;5.500;2023-03-15T00:43:44;101324.47;;;0.70;93.70
71043;BME280;58696;52.134;5.500;2023-03-15T00:46:12;101324.81;;;0.65;93.82
71043;BME280;58696;52.134;5.500;2023-03-15T00:48:39;101332.13;;;0.57;93.79
71043;BME280;58696;52.134;5.500;2023-03-15T00:51:12;101330.94;;;0.50;93.90
71043;BME280;58696;52.134;5.500;2023-03-15T00:53:42;101331.00;;;0.48;94.12
71043;BME280;58696;52.134;5.500;2023-03-15T00:56:20;101340.44;;;0.46;94.05
71043;BME280;58696;52.134;5.500;2023-03-15T00:58:50;101338.00;;;0.45;94.13
71043;BME280;58696;52.134;5.500;2023-03-15T01:01:23;101332.97;;;0.32;93.92
71043;BME280;58696;52.134;5.500;2023-03-15T01:03:54;101347.44;;;0.30;94.20
71043;BME280;58696;52.134;5.500;2023-03-15T01:06:23;101347.72;;;0.25;94.10
71043;BME280;58696;52.134;5.500;2023-03-15T01:08:55;101340.97;;;0.26;94.05
71043;BME280;58696;52.134;5.500;2023-03-15T01:11:26;101343.69;;;0.23;94.08
71043;BME280;58696;52.134;5.500;2023-03-15T01:13:57;101353.41;;;0.29;94.26
71043;BME280;58696;52.134;5.500;2023-03-15T01:16:24;101372.28;;;0.36;94.28
71043;BME280;58696;52.134;5.500;2023-03-15T01:18:52;101356.22;;;0.37;94.41
71043;BME280;58696;52.134;5.500;2023-03-15T01:21:22;101377.16;;;0.39;94.38
71043;BME280;58696;52.134;5.500;2023-03-15T01:23:49;101369.56;;;0.39;94.45
71043;BME280;58696;52.134;5.500;2023-03-15T01:26:16;101367.75;;;0.41;94.53
71043;BME280;58696;52.134;5.500;2023-03-15T01:28:49;101367.44;;;0.46;94.74
71043;BME280;58696;52.134;5.500;2023-03-15T01:31:20;101371.81;;;0.44;94.67
71043;BME280;58696;52.134;5.500;2023-03-15T01:33:47;101374.41;;;0.42;94.68
71043;BME280;58696;52.134;5.500;2023-03-15T01:36:17;101376.94;;;0.42;94.66
71043;BME280;58696;52.134;5.500;2023-03-15T01:38:44;101381.81;;;0.45;94.70
71043;BME280;58696;52.134;5.500;2023-03-15T01:41:15;101381.69;;;0.47;94.73
71043;BME280;58696;52.134;5.500;2023-03-15T01:43:45;101381.50;;;0.50;94.76
71043;BME280;58696;52.134;5.500;2023-03-15T01:56:30;101398.88;;;0.42;94.92
71043;BME280;58696;52.134;5.500;2023-03-15T01:58:59;101400.50;;;0.43;95.09
71043;BME280;58696;52.134;5.500;2023-03-15T02:01:28;101401.13;;;0.46;95.10
71043;BME280;58696;52.134;5.500;2023-03-15T02:04:01;101405.16;;;0.49;95.17
71043;BME280;58696;52.134;5.500;2023-03-15T02:06:30;101405.25;;;0.47;95.18
71043;BME280;58696;52.134;5.500;2023-03-15T02:09:09;101404.25;;;0.50;95.26
71043;BME280;58696;52.134;5.500;2023-03-15T02:11:41;101408.09;;;0.56;95.19
71043;BME280;58696;52.134;5.500;2023-03-15T02:14:10;101407.47;;;0.52;95.26
71043;BME280;58696;52.134;5.500;2023-03-15T02:16:41;101408.41;;;0.51;95.15
71043;BME280;58696;52.134;5.500;2023-03-15T02:19:27;101415.06;;;0.52;95.32
71043;BME280;58696;52.134;5.500;2023-03-15T02:22:18;101406.16;;;0.59;95.39
71043;BME280;58696;52.134;5.500;2023-03-15T02:25:18;101417.00;;;0.61;95.40
71043;BME280;58696;52.134;5.500;2023-03-15T02:27:47;101427.00;;;0.63;95.26
71043;BME280;58696;52.134;5.500;2023-03-15T02:30:14;101428.81;;;0.61;95.30
71043;BME280;58696;52.134;5.500;2023-03-15T02:32:40;101427.28;;;0.58;95.35
71043;BME280;58696;52.134;5.500;2023-03-15T02:35:07;101428.31;;;0.56;95.28
71043;BME280;58696;52.134;5.500;2023-03-15T02:37:36;101424.25;;;0.53;95.62
71043;BME280;58696;52.134;5.500;2023-03-15T02:40:18;101433.56;;;0.52;95.68
71043;BME280;58696;52.134;5.500;2023-03-15T02:42:50;101432.75;;;0.52;95.63
71043;BME280;58696;52.134;5.500;2023-03-15T02:45:23;101438.94;;;0.48;95.68
71043;BME280;58696;52.134;5.500;2023-03-15T02:47:55;101434.59;;;0.50;95.79
71043;BME280;58696;52.134;5.500;2023-03-15T02:50:27;101448.25;;;0.47;95.75
71043;BME280;58696;52.134;5.500;2023-03-15T02:52:56;101453.41;;;0.46;95.81
71043;BME280;58696;52.134;5.500;2023-03-15T02:55:25;101458.47;;;0.46;95.73
71043;BME280;58696;52.134;5.500;2023-03-15T02:57:56;101461.78;;;0.46;95.93
71043;BME280;58696;52.134;5.500;2023-03-15T03:00:23;101463.34;;;0.49;95.92
71043;BME280;58696;52.134;5.500;2023-03-15T03:02:50;101464.13;;;0.49;95.99
71043;BME280;58696;52.134;5.500;2023-03-15T03:05:19;101475.25;;;0.47;96.22
71043;BME280;58696;52.134;5.500;2023-03-15T03:07:53;101478.50;;;0.49;96.14
71043;BME280;58696;52.134;5.500;2023-03-15T03:10:21;101482.66;;;0.50;96.08
71043;BME280;58696;52.134;5.500;2023-03-15T03:12:50;101487.69;;;0.50;96.23
71043;BME280;58696;52.134;5.500;2023-03-15T03:15:21;101493.69;;;0.49;96.20
71043;BME280;58696;52.134;5.500;2023-03-15T03:17:50;101500.22;;;0.51;96.32
71043;BME280;58696;52.134;5.500;2023-03-15T03:20:20;101508.84;;;0.49;96.28
71043;BME280;58696;52.134;5.500;2023-03-15T03:22:48;101509.72;;;0.48;96.25
71043;BME280;58696;52.134;5.500;2023-03-15T03:25:15;101517.44;;;0.46;96.22
71043;BME280;58696;52.134;5.500;2023-03-15T03:27:42;101517.72;;;0.42;96.26
71043;BME280;58696;52.134;5.500;2023-03-15T03:30:12;101512.16;;;0.37;96.28
71043;BME280;58696;52.134;5.500;2023-03-15T03:32:40;101527.25;;;0.38;96.44
71043;BME280;58696;52.134;5.500;2023-03-15T03:35:08;101522.47;;;0.34;96.34
71043;BME280;58696;52.134;5.500;2023-03-15T03:37:39;101527.81;;;0.29;96.50
71043;BME280;58696;52.134;5.500;2023-03-15T03:40:09;101529.53;;;0.29;96.45
71043;BME280;58696;52.134;5.500;2023-03-15T03:42:37;101531.44;;;0.25;96.56
71043;BME280;58696;52.134;5.500;2023-03-15T03:45:05;101537.19;;;0.27;96.44
71043;BME280;58696;52.134;5.500;2023-03-15T03:47:34;101540.56;;;0.28;96.54
71043;BME280;58696;52.134;5.500;2023-03-15T03:50:00;101541.44;;;0.26;96.64
71043;BME280;58696;52.134;5.500;2023-03-15T03:52:29;101549.13;;;0.25;96.49
71043;BME280;58696;52.134;5.500;2023-03-15T03:54:56;101552.47;;;0.25;96.72
71043;BME280;58696;52.134;5.500;2023-03-15T03:57:22;101552.56;;;0.24;96.60
71043;BME280;58696;52.134;5.500;2023-03-15T03:59:51;101550.06;;;0.24;96.71
71043;BME280;58696;52.134;5.500;2023-03-15T04:02:21;101556.03;;;0.23;96.69
71043;BME280;58696;52.134;5.500;2023-03-15T04:04:47;101566.94;;;0.23;96.83
71043;BME280;58696;52.134;5.500;2023-03-15T04:07:15;101572.09;;;0.22;96.69
71043;BME280;58696;52.134;5.500;2023-03-15T04:09:47;101568.84;;;0.20;96.78
71043;BME280;58696;52.134;5.500;2023-03-15T04:12:17;101574.81;;;0.19;96.95
71043;BME280;58696;52.134;5.500;2023-03-15T04:14:46;101575.72;;;0.18;96.93
71043;BME280;58696;52.134;5.500;2023-03-15T04:17:16;101578.34;;;0.16;96.96
71043;BME280;58696;52.134;5.500;2023-03-15T04:19:42;101586.91;;;0.14;96.89
71043;BME280;58696;52.134;5.500;2023-03-15T04:22:15;101596.31;;;0.12;96.95
71043;BME280;58696;52.134;5.500;2023-03-15T04:24:41;101596.31;;;0.12;96.93
71043;BME280;58696;52.134;5.500;2023-03-15T04:27:11;101595.69;;;0.08;97.01
71043;BME280;58696;52.134;5.500;2023-03-15T04:29:41;101599.84;;;0.09;97.05
71043;BME280;58696;52.134;5.500;2023-03-15T04:32:09;101601.66;;;0.07;96.89
71043;BME280;58696;52.134;5.500;2023-03-15T04:34:38;101601.75;;;0.06;97.13
71043;BME280;58696;52.134;5.500;2023-03-15T04:37:07;101602.94;;;0.00;97.09
71043;BME280;58696;52.134;5.500;2023-03-15T04:39:34;101606.47;;;-0.03;97.06
71043;BME280;58696;52.134;5.500;2023-03-15T04:42:02;101609.91;;;-0.04;97.14
71043;BME280;58696;52.134;5.500;2023-03-15T04:44:30;101611.69;;;-0.06;97.05
71043;BME280;58696;52.134;5.500;2023-03-15T04:46:57;101624.25;;;-0.04;97.18
71043;BME280;58696;52.134;5.500;2023-03-15T04:49:25;101609.09;;;-0.04;97.19
71043;BME280;58696;52.134;5.500;2023-03-15T04:51:51;101624.31;;;-0.06;97.17
71043;BME280;58696;52.134;5.500;2023-03-15T04:54:18;101628.50;;;-0.05;97.35
71043;BME280;58696;52.134;5.500;2023-03-15T04:56:45;101631.03;;;-0.05;97.36
71043;BME280;58696;52.134;5.500;2023-03-15T04:59:11;101625.16;;;-0.05;97.37
71043;BME280;58696;52.134;5.500;2023-03-15T05:01:38;101636.13;;;-0.06;97.17
71043;BME280;58696;52.134;5.500;2023-03-15T05:04:04;101639.69;;;-0.09;97.40
71043;BME280;58696;52.134;5.500;2023-03-15T05:06:34;101648.16;;;-0.10;97.43
71043;BME280;58696;52.134;5.500;2023-03-15T05:09:01;101649.88;;;-0.10;97.37
71043;BME280;58696;52.134;5.500;2023-03-15T05:11:30;101649.16;;;-0.12;97.31
71043;BME280;58696;52.134;5.500;2023-03-15T05:13:57;101654.41;;;-0.15;97.21
71043;BME280;58696;52.134;5.500;2023-03-15T05:16:25;101663.69;;;-0.16;97.49
71043;BME280;58696;52.134;5.500;2023-03-15T05:18:52;101665.41;;;-0.16;97.37
71043;BME280;58696;52.134;5.500;2023-03-15T05:21:21;101670.47;;;-0.16;97.54
71043;BME280;58696;52.134;5.500;2023-03-15T05:23:48;101669.63;;;-0.17;97.38
71043;BME280;58696;52.134;5.500;2023-03-15T05:26:20;101682.47;;;-0.20;97.37
71043;BME280;58696;52.134;5.500;2023-03-15T05:28:52;101689.94;;;-0.18;97.35
71043;BME280;58696;52.134;5.500;2023-03-15T05:31:20;101698.16;;;-0.15;97.48
71043;BME280;58696;52.134;5.500;2023-03-15T05:33:50;101698.25;;;-0.16;97.38
71043;BME280;58696;52.134;5.500;2023-03-15T05:36:19;101695.81;;;-0.18;97.50
71043;BME280;58696;52.134;5.500;2023-03-15T05:38:51;101701.13;;;-0.22;97.42
71043;BME280;58696;52.134;5.500;2023-03-15T05:41:20;101713.03;;;-0.24;97.28
71043;BME280;58696;52.134;5.500;2023-03-15T05:43:51;101704.81;;;-0.28;97.36
71043;BME280;58696;52.134;5.500;2023-03-15T05:46:20;101708.34;;;-0.31;97.24
71043;BME280;58696;52.134;5.500;2023-03-15T05:48:48;101710.88;;;-0.31;97.30
71043;BME280;58696;52.134;5.500;2023-03-15T05:51:17;101715.22;;;-0.33;97.59
71043;BME280;58696;52.134;5.500;2023-03-15T05:53:44;101716.84;;;-0.32;97.45
71043;BME280;58696;52.134;5.500;2023-03-15T05:56:13;101723.88;;;-0.37;97.43
71043;BME280;58696;52.134;5.500;2023-03-15T05:58:39;101721.34;;;-0.37;97.51
71043;BME280;58696;52.134;5.500;2023-03-15T06:01:06;101725.66;;;-0.39;97.60
71043;BME280;58696;52.134;5.500;2023-03-15T06:03:32;101736.75;;;-0.41;97.37
71043;BME280;58696;52.134;5.500;2023-03-15T06:06:02;101738.63;;;-0.45;97.40
71043;BME280;58696;52.134;5.500;2023-03-15T06:08:28;101746.31;;;-0.46;97.40
71043;BME280;58696;52.134;5.500;2023-03-15T06:10:56;101750.53;;;-0.47;97.42
71043;BME280;58696;52.134;5.500;2023-03-15T06:13:23;101750.34;;;-0.44;97.59
71043;BME280;58696;52.134;5.500;2023-03-15T06:15:52;101765.19;;;-0.38;97.51
71043;BME280;58696;52.134;5.500;2023-03-15T06:18:20;101758.84;;;-0.31;97.55
71043;BME280;58696;52.134;5.500;2023-03-15T06:20:46;101765.19;;;-0.23;97.58
71043;BME280;58696;52.134;5.500;2023-03-15T06:23:17;101764.81;;;-0.17;97.63
71043;BME280;58696;52.134;5.500;2023-03-15T06:25:46;101771.31;;;-0.13;97.56
71043;BME280;58696;52.134;5.500;2023-03-15T06:28:15;101779.16;;;-0.18;97.40
71043;BME280;58696;52.134;5.500;2023-03-15T06:30:44;101780.72;;;-0.15;97.40
71043;BME280;58696;52.134;5.500;2023-03-15T06:33:10;101784.84;;;-0.14;97.25
71043;BME280;58696;52.134;5.500;2023-03-15T06:35:39;101788.22;;;0.01;97.05
71043;BME280;58696;52.134;5.500;2023-03-15T06:38:06;101792.44;;;0.14;96.64
71043;BME280;58696;52.134;5.500;2023-03-15T06:40:35;101799.56;;;0.36;96.58
71043;BME280;58696;52.134;5.500;2023-03-15T06:43:01;101808.75;;;0.51;96.27
71043;BME280;58696;52.134;5.500;2023-03-15T06:45:32;101802.78;;;0.67;96.35
71043;BME280;58696;52.134;5.500;2023-03-15T06:48:01;101808.25;;;0.88;96.23
71043;BME280;58696;52.134;5.500;2023-03-15T06:50:32;101813.16;;;1.03;96.03
71043;BME280;58696;52.134;5.500;2023-03-15T06:53:12;101816.84;;;1.25;95.37
71043;BME280;58696;52.134;5.500;2023-03-15T06:55:42;101824.69;;;1.35;94.99
71043;BME280;58696;52.134;5.500;2023-03-15T06:58:09;101828.53;;;1.40;94.61
71043;BME280;58696;52.134;5.500;2023-03-15T07:00:36;101829.69;;;1.49;94.17
71043;BME280;58696;52.134;5.500;2023-03-15T07:03:08;101835.66;;;1.48;94.11
71043;BME280;58696;52.134;5.500;2023-03-15T07:05:38;101844.22;;;1.72;93.56
71043;BME280;58696;52.134;5.500;2023-03-15T07:08:07;101846.97;;;1.82;93.27
71043;BME280;58696;52.134;5.500;2023-03-15T07:10:34;101855.69;;;2.03;92.89
71043;BME280;58696;52.134;5.500;2023-03-15T07:13:03;101853.16;;;2.29;92.29
71043;BME280;58696;52.134;5.500;2023-03-15T07:15:32;101854.34;;;2.49;91.25
71043;BME280;58696;52.134;5.500;2023-03-15T07:17:59;101860.66;;;2.30;90.74
71043;BME280;58696;52.134;5.500;2023-03-15T07:20:28;101865.63;;;2.32;90.86
71043;BME280;58696;52.134;5.500;2023-03-15T07:23:02;101858.50;;;2.86;90.50
71043;BME280;58696;52.134;5.500;2023-03-15T07:25:28;101870.59;;;3.43;88.95
71043;BME280;58696;52.134;5.500;2023-03-15T07:27:57;101871.22;;;3.34;88.40
71043;BME280;58696;52.134;5.500;2023-03-15T07:30:25;101876.50;;;3.31;87.97
71043;BME280;58696;52.134;5.500;2023-03-15T07:32:55;101873.88;;;3.33;88.24
71043;BME280;58696;52.134;5.500;2023-03-15T07:35:22;101877.19;;;3.57;87.37
71043;BME280;58696;52.134;5.500;2023-03-15T07:37:51;101880.06;;;3.53;87.38
71043;BME280;58696;52.134;5.500;2023-03-15T07:40:17;101889.34;;;3.54;87.60
71043;BME280;58696;52.134;5.500;2023-03-15T07:42:47;101897.66;;;4.02;87.60
71043;BME280;58696;52.134;5.500;2023-03-15T07:45:13;101887.03;;;4.87;84.99
71043;BME280;58696;52.134;5.500;2023-03-15T07:47:40;101894.75;;;5.93;81.95
71043;BME280;58696;52.134;5.500;2023-03-15T07:50:10;101893.16;;;6.22;80.30
71043;BME280;58696;52.134;5.500;2023-03-15T07:52:41;101902.25;;;6.36;79.30
71043;BME280;58696;52.134;5.500;2023-03-15T07:55:08;101900.66;;;6.85;77.61
71043;BME280;58696;52.134;5.500;2023-03-15T07:57:35;101907.94;;;7.09;76.26
71043;BME280;58696;52.134;5.500;2023-03-15T08:00:03;101909.84;;;7.75;73.92
71043;BME280;58696;52.134;5.500;2023-03-15T08:02:34;101911.31;;;8.43;72.29
71043;BME280;58696;52.134;5.500;2023-03-15T08:05:01;101900.59;;;9.21;68.93
71043;BME280;58696;52.134;5.500;2023-03-15T08:07:32;101911.72;;;9.91;65.33
71043;BME280;58696;52.134;5.500;2023-03-15T08:10:03;101912.81;;;10.07;65.17
71043;BME280;58696;52.134;5.500;2023-03-15T08:12:31;101917.13;;;10.32;63.64
71043;BME280;58696;52.134;5.500;2023-03-15T08:15:03;101926.25;;;10.26;63.76
71043;BME280;58696;52.134;5.500;2023-03-15T08:17:32;101925.50;;;10.34;63.39
71043;BME280;58696;52.134;5.500;2023-03-15T08:20:01;101933.75;;;10.46;63.24
71043;BME280;58696;52.134;5.500;2023-03-15T08:22:28;101933.41;;;10.83;62.07
71043;BME280;58696;52.134;5.500;2023-03-15T08:24:55;101938.00;;;10.29;59.29
71043;BME280;58696;52.134;5.500;2023-03-15T08:27:24;101932.47;;;9.98;61.07
71043;BME280;58696;52.134;5.500;2023-03-15T08:29:52;101931.94;;;10.80;59.50
71043;BME280;58696;52.134;5.500;2023-03-15T08:32:20;101939.91;;;10.61;58.33
71043;BME280;58696;52.134;5.500;2023-03-15T08:34:50;101951.00;;;10.27;61.46
71043;BME280;58696;52.134;5.500;2023-03-15T08:37:20;101950.50;;;10.58;60.06
71043;BME280;58696;52.134;5.500;2023-03-15T08:39:49;101954.44;;;10.78;61.12
71043;BME280;58696;52.134;5.500;2023-03-15T08:42:23;101961.91;;;11.06;60.00
71043;BME280;58696;52.134;5.500;2023-03-15T08:44:52;101964.16;;;11.01;59.81
71043;BME280;58696;52.134;5.500;2023-03-15T08:47:19;101966.31;;;10.79;59.28
71043;BME280;58696;52.134;5.500;2023-03-15T08:49:45;101970.44;;;11.06;59.53
71043;BME280;58696;52.134;5.500;2023-03-15T08:52:13;101974.81;;;11.30;57.97
71043;BME280;58696;52.134;5.500;2023-03-15T08:54:42;101972.75;;;11.50;58.50
71043;BME280;58696;52.134;5.500;2023-03-15T08:57:09;101985.13;;;11.63;57.54
71043;BME280;58696;52.134;5.500;2023-03-15T08:59:40;101976.75;;;11.20;58.61
71043;BME280;58696;52.134;5.500;2023-03-15T09:02:10;101988.41;;;11.81;58.84
71043;BME280;58696;52.134;5.500;2023-03-15T09:04:40;101982.56;;;11.39;56.70
71043;BME280;58696;52.134;5.500;2023-03-15T09:07:07;101986.59;;;11.74;56.87
71043;BME280;58696;52.134;5.500;2023-03-15T09:09:37;101982.59;;;11.71;58.79
71043;BME280;58696;52.134;5.500;2023-03-15T09:12:04;101984.84;;;11.58;58.78
71043;BME280;58696;52.134;5.500;2023-03-15T09:14:32;101983.41;;;11.64;58.02
71043;BME280;58696;52.134;5.500;2023-03-15T09:17:01;101985.13;;;11.47;58.51
71043;BME280;58696;52.134;5.500;2023-03-15T09:19:28;101988.53;;;11.72;57.85
71043;BME280;58696;52.134;5.500;2023-03-15T09:22:00;101985.00;;;11.48;58.16
71043;BME280;58696;52.134;5.500;2023-03-15T09:24:42;101983.94;;;11.09;58.34
71043;BME280;58696;52.134;5.500;2023-03-15T09:27:09;101971.22;;;11.07;57.83
71043;BME280;58696;52.134;5.500;2023-03-15T09:29:37;101977.63;;;10.52;59.12
71043;BME280;58696;52.134;5.500;2023-03-15T09:32:05;101979.94;;;10.12;60.77
71043;BME280;58696;52.134;5.500;2023-03-15T09:34:36;101981.38;;;9.53;61.58
71043;BME280;58696;52.134;5.500;2023-03-15T09:37:08;101978.19;;;9.23;63.66
71043;BME280;58696;52.134;5.500;2023-03-15T09:39:37;101977.56;;;8.93;64.98
71043;BME280;58696;52.134;5.500;2023-03-15T09:42:12;101984.25;;;8.77;66.69
71043;BME280;58696;52.134;5.500;2023-03-15T09:44:50;101993.91;;;8.55;64.91
71043;BME280;58696;52.134;5.500;2023-03-15T09:47:25;101993.09;;;8.64;65.29
71043;BME280;58696;52.134;5.500;2023-03-15T09:49:59;101996.09;;;8.50;66.98
71043;BME280;58696;52.134;5.500;2023-03-15T09:52:36;101998.91;;;8.47;67.47
71043;BME280;58696;52.134;5.500;2023-03-15T09:55:18;102005.94;;;8.45;67.56
71043;BME280;58696;52.134;5.500;2023-03-15T10:00:21;101999.88;;;8.46;65.48
71043;BME280;58696;52.134;5.500;2023-03-15T10:02:56;102002.03;;;8.51;64.84
71043;BME280;58696;52.134;5.500;2023-03-15T10:05:44;101993.13;;;8.55;66.43
71043;BME280;58696;52.134;5.500;2023-03-15T10:08:18;101998.53;;;8.79;64.60
71043;BME280;58696;52.134;5.500;2023-03-15T10:11:18;102001.06;;;8.89;63.46
71043;BME280;58696;52.134;5.500;2023-03-15T10:16:42;101986.28;;;8.73;63.63
71043;BME280;58696;52.134;5.500;2023-03-15T10:21:57;101986.69;;;8.78;60.60
71043;BME280;58696;52.134;5.500;2023-03-15T10:24:31;101985.91;;;8.68;59.44
71043;BME280;58696;52.134;5.500;2023-03-15T10:29:57;101981.66;;;8.86;61.53
71043;BME280;58696;52.134;5.500;2023-03-15T10:32:37;101983.41;;;9.13;60.08
71043;BME280;58696;52.134;5.500;2023-03-15T10:35:13;101984.06;;;9.15;59.69
71043;BME280;58696;52.134;5.500;2023-03-15T10:37:43;101989.97;;;8.98;58.22
71043;BME280;58696;52.134;5.500;2023-03-15T10:40:11;101988.53;;;8.86;58.56
71043;BME280;58696;52.134;5.500;2023-03-15T10:42:43;101995.22;;;8.96;57.57
71043;BME280;58696;52.134;5.500;2023-03-15T10:45:22;102005.16;;;8.82;58.14
71043;BME280;58696;52.134;5.500;2023-03-15T10:47:50;102006.44;;;8.95;55.67
71043;BME280;58696;52.134;5.500;2023-03-15T10:50:31;102014.22;;;9.04;52.92
71043;BME280;58696;52.134;5.500;2023-03-15T10:53:00;102021.78;;;9.05;51.76
71043;BME280;58696;52.134;5.500;2023-03-15T10:55:42;102016.78;;;9.04;53.27
71043;BME280;58696;52.134;5.500;2023-03-15T11:01:04;102033.94;;;9.31;54.26
71043;BME280;58696;52.134;5.500;2023-03-15T11:03:36;102037.09;;;9.42;56.40
71043;BME280;58696;52.134;5.500;2023-03-15T11:06:19;102041.28;;;9.61;53.26
71043;BME280;58696;52.134;5.500;2023-03-15T11:08:47;102039.75;;;9.68;52.00
71043;BME280;58696;52.134;5.500;2023-03-15T11:11:17;102044.22;;;9.66;52.81
71043;BME280;58696;52.134;5.500;2023-03-15T11:13:59;102043.63;;;9.72;51.11
71043;BME280;58696;52.134;5.500;2023-03-15T11:16:33;102054.69;;;9.73;53.41
71043;BME280;58696;52.134;5.500;2023-03-15T11:19:06;102047.09;;;9.81;54.15
71043;BME280;58696;52.134;5.500;2023-03-15T11:21:42;102054.78;;;9.99;54.72
71043;BME280;58696;52.134;5.500;2023-03-15T11:24:22;102058.97;;;10.00;54.78
71043;BME280;58696;52.134;5.500;2023-03-15T11:26:52;102067.09;;;9.78;56.01
71043;BME280;58696;52.134;5.500;2023-03-15T11:31:55;102061.31;;;9.93;54.94
71043;BME280;58696;52.134;5.500;2023-03-15T11:34:51;102053.69;;;9.66;53.92
71043;BME280;58696;52.134;5.500;2023-03-15T11:37:37;102056.41;;;9.64;57.00
71043;BME280;58696;52.134;5.500;2023-03-15T11:40:32;102052.00;;;9.74;58.02
71043;BME280;58696;52.134;5.500;2023-03-15T11:43:20;102054.84;;;9.89;57.79
71043;BME280;58696;52.134;5.500;2023-03-15T11:46:00;102049.84;;;10.06;55.14
71043;BME280;58696;52.134;5.500;2023-03-15T11:48:36;102047.81;;;10.09;56.49
71043;BME280;58696;52.134;5.500;2023-03-15T11:51:07;102044.28;;;10.10;54.10
71043;BME280;58696;52.134;5.500;2023-03-15T11:56:55;102027.47;;;10.16;54.05
71043;BME280;58696;52.134;5.500;2023-03-15T11:59:31;102032.75;;;10.14;53.85
71043;BME280;58696;52.134;5.500;2023-03-15T12:07:31;102027.69;;;10.22;53.82
71043;BME280;58696;52.134;5.500;2023-03-15T12:15:42;102035.63;;;10.29;49.23
71043;BME280;58696;52.134;5.500;2023-03-15T12:20:43;102053.63;;;10.11;49.31
71043;BME280;58696;52.134;5.500;2023-03-15T12:23:30;102046.03;;;10.10;50.40
71043;BME280;58696;52.134;5.500;2023-03-15T12:26:05;102050.81;;;10.22;49.80
71043;BME280;58696;52.134;5.500;2023-03-15T12:28:37;102046.41;;;10.33;52.12
71043;BME280;58696;52.134;5.500;2023-03-15T12:31:11;102038.75;;;10.41;50.16
71043;BME280;58696;52.134;5.500;2023-03-15T12:33:58;102034.47;;;10.49;51.90
71043;BME280;58696;52.134;5.500;2023-03-15T12:36:34;102040.53;;;10.22;50.11
71043;BME280;58696;52.134;5.500;2023-03-15T12:41:44;102028.38;;;10.24;47.23
71043;BME280;58696;52.134;5.500;2023-03-15T12:44:37;102042.22;;;10.32;50.50
71043;BME280;58696;52.134;5.500;2023-03-15T12:47:08;102041.22;;;10.50;50.68
71043;BME280;58696;52.134;5.500;2023-03-15T12:49:42;102044.75;;;10.49;49.18
71043;BME280;58696;52.134;5.500;2023-03-15T12:55:03;102041.78;;;10.62;49.17
71043;BME280;58696;52.134;5.500;2023-03-15T12:57:51;102040.81;;;10.63;49.31
71043;BME280;58696;52.134;5.500;2023-03-15T13:00:27;102043.69;;;10.60;47.62
71043;BME280;58696;52.134;5.500;2023-03-15T13:03:06;102041.88;;;10.52;48.36
71043;BME280;58696;52.134;5.500;2023-03-15T13:06:00;102043.47;;;10.53;48.75
71043;BME280;58696;52.134;5.500;2023-03-15T13:08:51;102043.19;;;10.31;48.19
71043;BME280;58696;52.134;5.500;2023-03-15T13:11:34;102038.50;;;10.52;49.66
71043;BME280;58696;52.134;5.500;2023-03-15T13:14:45;102042.97;;;10.76;48.61
71043;BME280;58696;52.134;5.500;2023-03-15T13:20:05;102035.81;;;10.36;45.41
71043;BME280;58696;52.134;5.500;2023-03-15T13:23:13;102025.25;;;10.21;47.53
71043;BME280;58696;52.134;5.500;2023-03-15T13:28:50;102027.34;;;10.43;45.20
71043;BME280;58696;52.134;5.500;2023-03-15T13:31:21;102035.72;;;10.45;44.88
71043;BME280;58696;52.134;5.500;2023-03-15T13:33:51;102034.41;;;10.41;44.22
71043;BME280;58696;52.134;5.500;2023-03-15T13:36:26;102038.59;;;10.42;44.00
71043;BME280;58696;52.134;5.500;2023-03-15T13:38:55;102042.56;;;10.37;45.87
71043;BME280;58696;52.134;5.500;2023-03-15T13:41:24;102041.50;;;10.04;46.11
71043;BME280;58696;52.134;5.500;2023-03-15T13:43:56;102045.63;;;9.79;47.74
71043;BME280;58696;52.134;5.500;2023-03-15T13:46:29;102039.38;;;10.17;48.99
71043;BME280;58696;52.134;5.500;2023-03-15T13:48:56;102035.47;;;10.31;48.68
71043;BME280;58696;52.134;5.500;2023-03-15T13:53:54;102042.09;;;10.33;49.23
71043;BME280;58696;52.134;5.500;2023-03-15T13:59:28;102040.91;;;10.10;47.41
71043;BME280;58696;52.134;5.500;2023-03-15T14:01:58;102046.47;;;10.05;47.72
71043;BME280;58696;52.134;5.500;2023-03-15T14:04:28;102054.28;;;9.95;46.95
71043;BME280;58696;52.134;5.500;2023-03-15T14:07:28;102053.13;;;9.90;47.40
71043;BME280;58696;52.134;5.500;2023-03-15T14:13:23;102050.91;;;9.95;46.71
71043;BME280;58696;52.134;5.500;2023-03-15T14:16:04;102051.13;;;10.01;46.66
71043;BME280;58696;52.134;5.500;2023-03-15T14:18:34;102055.94;;;10.05;46.74
71043;BME280;58696;52.134;5.500;2023-03-15T14:21:15;102060.97;;;10.06;46.42